createdAt,value
2018-09-06T00:01:21.867Z,16.40
2018-09-06T00:03:52.188Z,18.87
2018-09-06T00:06:23.146Z,18.03
2018-09-06T00:08:53.517Z,17.70
2018-09-06T00:11:24.016Z,16.90
2018-09-06T00:13:53.927Z,17.43
2018-09-06T00:16:24.095Z,19.50
2018-09-06T00:18:53.895Z,17.53
2018-09-06T00:21:25.132Z,20.07
2018-09-06T00:23:55.270Z,20.60
2018-09-06T00:26:29.579Z,19.97
2018-09-06T00:28:59.751Z,19.07
2018-09-06T00:31:34.520Z,19.13
2018-09-06T00:34:05.455Z,18.10
2018-09-06T00:36:37.161Z,19.43
2018-09-06T00:39:09.664Z,17.37
2018-09-06T00:41:42.085Z,17.43
2018-09-06T00:44:12.180Z,16.90
2018-09-06T00:46:44.094Z,16.90
2018-09-06T00:49:15.377Z,16.97
2018-09-06T00:51:48.218Z,16.67
2018-09-06T00:54:19.344Z,17.17
2018-09-06T00:56:49.153Z,16.60
2018-09-06T00:59:22.844Z,16.43
2018-09-06T01:01:52.759Z,15.93
2018-09-06T01:04:23.426Z,17.67
2018-09-06T01:06:53.378Z,16.40
2018-09-06T01:09:23.644Z,16.40
2018-09-06T01:11:55.759Z,17.57
2018-09-06T01:14:27.934Z,17.67
2018-09-06T01:16:58.984Z,16.70
2018-09-06T01:19:29.133Z,18.57
2018-09-06T01:21:59.367Z,16.80
2018-09-06T01:24:29.548Z,16.80
2018-09-06T01:26:59.812Z,17.90
2018-09-06T01:29:29.840Z,17.17
2018-09-06T01:32:01.145Z,17.60
2018-09-06T01:34:31.447Z,16.20
2018-09-06T01:37:06.649Z,17.70
2018-09-06T01:39:37.363Z,15.03
2018-09-06T01:42:09.037Z,14.97
2018-09-06T01:44:41.724Z,17.03
2018-09-06T01:47:12.873Z,17.63
2018-09-06T01:49:43.186Z,17.10
2018-09-06T01:52:13.071Z,17.60
2018-09-06T01:54:42.842Z,16.07
2018-09-06T01:57:12.596Z,17.40
2018-09-06T01:59:42.362Z,16.73
2018-09-06T02:02:12.051Z,16.57
2018-09-06T02:04:41.948Z,17.47
2018-09-06T02:07:11.757Z,16.87
2018-09-06T02:09:42.009Z,18.17
2018-09-06T02:12:12.456Z,17.87
2018-09-06T02:14:43.912Z,18.13
2018-09-06T02:17:15.798Z,15.27
2018-09-06T02:19:45.501Z,15.20
2018-09-06T02:22:15.270Z,15.60
2018-09-06T02:24:45.555Z,14.20
2018-09-06T02:27:15.351Z,16.50
2018-09-06T02:29:45.087Z,14.73
2018-09-06T02:32:14.877Z,14.20
2018-09-06T02:34:44.581Z,15.20
2018-09-06T02:37:14.277Z,15.57
2018-09-06T02:39:44.094Z,16.10
2018-09-06T02:42:13.839Z,16.67
2018-09-06T02:44:43.646Z,17.83
2018-09-06T02:47:13.345Z,17.70
2018-09-06T02:49:48.230Z,17.60
2018-09-06T02:52:20.190Z,17.63
2018-09-06T02:54:49.919Z,15.73
2018-09-06T02:57:21.017Z,15.33
2018-09-06T02:59:50.725Z,14.40
2018-09-06T03:02:20.445Z,15.00
2018-09-06T03:04:51.136Z,15.57
2018-09-06T03:07:21.414Z,14.60
2018-09-06T03:09:54.393Z,14.70
2018-09-06T03:12:25.476Z,13.67
2018-09-06T03:14:55.729Z,14.00
2018-09-06T03:17:27.107Z,13.77
2018-09-06T03:19:57.262Z,13.97
2018-09-06T03:22:27.531Z,13.70
2018-09-06T03:24:57.695Z,13.63
2018-09-06T03:27:27.752Z,13.87
2018-09-06T03:29:57.972Z,13.60
2018-09-06T03:32:29.697Z,12.53
2018-09-06T03:34:59.880Z,12.97
2018-09-06T03:37:30.023Z,12.83
2018-09-06T03:40:00.373Z,13.53
2018-09-06T03:42:30.593Z,14.10
2018-09-06T03:45:00.858Z,13.37
2018-09-06T03:47:31.126Z,13.93
2018-09-06T03:50:01.423Z,13.40
2018-09-06T03:52:32.751Z,14.07
2018-09-06T03:55:03.235Z,13.90
2018-09-06T03:57:34.423Z,13.50
2018-09-06T04:00:04.940Z,15.43
2018-09-06T04:02:35.062Z,12.67
2018-09-06T04:05:05.255Z,12.77
2018-09-06T04:07:35.524Z,14.80
2018-09-06T04:10:07.595Z,14.60
2018-09-06T04:12:39.266Z,14.53
2018-09-06T04:15:10.007Z,14.90
2018-09-06T04:17:41.585Z,14.30
2018-09-06T04:20:11.960Z,15.07
2018-09-06T04:22:45.845Z,13.60
2018-09-06T04:25:16.819Z,15.90
2018-09-06T04:27:47.320Z,13.67
2018-09-06T04:30:17.944Z,15.37
2018-09-06T04:32:48.439Z,14.13
2018-09-06T04:35:18.942Z,14.57
2018-09-06T04:37:51.201Z,14.00
2018-09-06T04:40:22.119Z,14.93
2018-09-06T04:42:52.484Z,14.33
2018-09-06T04:45:22.574Z,13.70
2018-09-06T04:47:52.806Z,14.57
2018-09-06T04:50:23.323Z,13.93
2018-09-06T04:52:55.998Z,14.10
2018-09-06T04:55:26.188Z,14.53
2018-09-06T04:57:56.415Z,12.83
2018-09-06T05:00:26.368Z,14.53
2018-09-06T05:02:57.585Z,14.30
2018-09-06T05:05:27.770Z,13.27
2018-09-06T05:07:58.520Z,12.70
2018-09-06T05:10:28.739Z,12.70
2018-09-06T05:12:58.937Z,15.63
2018-09-06T05:15:29.088Z,13.00
2018-09-06T05:17:59.261Z,12.97
2018-09-06T05:20:30.354Z,11.70
2018-09-06T05:23:01.251Z,12.70
2018-09-06T05:25:31.568Z,13.23
2018-09-06T05:28:01.583Z,12.50
2018-09-06T05:30:32.407Z,12.87
2018-09-06T05:33:03.198Z,12.37
2018-09-06T05:35:34.726Z,11.50
2018-09-06T05:38:04.955Z,12.33
2018-09-06T05:40:34.983Z,12.80
2018-09-06T05:43:06.542Z,13.50
2018-09-06T05:45:36.555Z,11.83
2018-09-06T05:48:09.135Z,12.33
2018-09-06T05:50:40.085Z,13.40
2018-09-06T05:53:10.681Z,12.97
2018-09-06T05:55:41.210Z,11.30
2018-09-06T05:58:11.660Z,11.50
2018-09-06T06:00:44.825Z,10.43
2018-09-06T06:03:16.144Z,10.73
2018-09-06T06:05:46.760Z,12.80
2018-09-06T06:08:27.680Z,11.50
2018-09-06T06:10:57.981Z,12.57
2018-09-06T06:13:30.222Z,12.47
2018-09-06T06:16:01.074Z,11.87
2018-09-06T06:18:32.044Z,12.30
2018-09-06T06:21:03.004Z,13.00
2018-09-06T06:23:33.583Z,12.70
2018-09-06T06:26:04.146Z,12.40
2018-09-06T06:28:34.960Z,12.23
2018-09-06T06:31:05.209Z,10.50
2018-09-06T06:33:35.680Z,13.53
2018-09-06T06:36:05.888Z,11.60
2018-09-06T06:38:36.143Z,11.30
2018-09-06T06:41:06.389Z,11.73
2018-09-06T06:43:37.062Z,11.27
2018-09-06T06:46:07.187Z,10.70
2018-09-06T06:48:37.504Z,11.13
2018-09-06T06:51:08.577Z,11.10
2018-09-06T06:53:38.723Z,12.13
2018-09-06T06:56:10.048Z,10.30
2018-09-06T06:58:41.995Z,10.20
2018-09-06T07:01:12.381Z,10.53
2018-09-06T07:03:42.605Z,9.83
2018-09-06T07:06:13.031Z,11.33
2018-09-06T07:08:43.428Z,11.20
2018-09-06T07:11:13.904Z,10.57
2018-09-06T07:13:43.963Z,9.97
2018-09-06T07:16:14.279Z,9.50
2018-09-06T07:18:44.768Z,10.63
2018-09-06T07:21:14.901Z,10.07
2018-09-06T07:23:45.292Z,10.67
2018-09-06T07:26:15.577Z,9.60
2018-09-06T07:28:45.652Z,8.83
2018-09-06T07:31:15.832Z,8.90
2018-09-06T07:33:46.888Z,9.07
2018-09-06T07:36:17.114Z,8.93
2018-09-06T07:38:47.294Z,8.87
2018-09-06T07:41:17.990Z,8.50
2018-09-06T07:43:49.062Z,8.83
2018-09-06T07:46:19.334Z,8.80
2018-09-06T07:48:49.375Z,8.30
2018-09-06T07:51:20.430Z,7.20
2018-09-06T07:53:52.245Z,8.57
2018-09-06T07:56:23.266Z,8.00
2018-09-06T07:58:53.716Z,8.90
2018-09-06T08:01:24.330Z,8.43
2018-09-06T08:03:54.734Z,8.27
2018-09-06T08:06:25.000Z,8.70
2018-09-06T08:08:57.288Z,9.20
2018-09-06T08:11:27.535Z,8.63
2018-09-06T08:13:57.570Z,9.70
2018-09-06T08:16:27.743Z,8.70
2018-09-06T08:18:58.835Z,10.10
2018-09-06T08:21:29.059Z,8.60
2018-09-06T08:23:59.258Z,8.40
2018-09-06T08:26:29.551Z,9.33
2018-09-06T08:28:59.817Z,9.23
2018-09-06T08:31:31.194Z,8.57
2018-09-06T08:34:01.518Z,9.67
2018-09-06T08:36:32.283Z,9.43
2018-09-06T08:39:03.405Z,8.70
2018-09-06T08:41:33.512Z,9.00
2018-09-06T08:44:03.776Z,9.87
2018-09-06T08:46:33.806Z,8.83
2018-09-06T08:49:04.798Z,8.13
2018-09-06T08:51:35.018Z,10.40
2018-09-06T08:54:06.062Z,8.90
2018-09-06T08:56:36.367Z,9.90
2018-09-06T08:59:06.711Z,8.40
2018-09-06T09:01:42.427Z,7.67
2018-09-06T09:04:12.688Z,8.37
2018-09-06T09:06:42.836Z,8.33
2018-09-06T09:09:15.267Z,7.90
2018-09-06T09:11:45.779Z,7.37
2018-09-06T09:14:17.220Z,7.83
2018-09-06T09:16:48.422Z,7.10
2018-09-06T09:19:18.686Z,8.27
2018-09-06T09:21:49.180Z,7.67
2018-09-06T09:24:20.028Z,7.67
2018-09-06T09:26:51.268Z,7.93
2018-09-06T09:29:22.253Z,8.53
2018-09-06T09:31:52.721Z,8.37
2018-09-06T09:34:23.119Z,8.23
2018-09-06T09:36:53.677Z,8.67
2018-09-06T09:39:27.023Z,7.70
2018-09-06T09:41:57.456Z,7.70
2018-09-06T09:44:28.908Z,7.57
2018-09-06T09:49:31.550Z,8.03
2018-09-06T09:52:01.817Z,8.10
2018-09-06T09:54:33.636Z,8.23
2018-09-06T09:57:04.236Z,7.87
2018-09-06T09:59:35.957Z,8.23
2018-09-06T10:02:11.158Z,7.80
2018-09-06T10:05:46.518Z,8.57
2018-09-06T10:08:21.661Z,9.10
2018-09-06T10:10:52.711Z,8.97
2018-09-06T10:13:23.202Z,8.60
2018-09-06T10:15:53.974Z,8.00
2018-09-06T10:18:24.484Z,8.50
2018-09-06T10:20:54.875Z,8.90
2018-09-06T10:23:25.296Z,8.47
2018-09-06T10:25:56.191Z,8.60
2018-09-06T10:28:26.879Z,8.97
2018-09-06T10:30:57.372Z,8.13
2018-09-06T10:33:27.965Z,9.43
2018-09-06T10:35:58.523Z,9.07
2018-09-06T10:38:30.340Z,9.20
2018-09-06T10:41:01.068Z,9.80
2018-09-06T10:43:31.264Z,8.07
2018-09-06T10:46:01.886Z,9.00
2018-09-06T10:48:32.172Z,8.97
2018-09-06T10:51:02.623Z,9.77
2018-09-06T10:53:33.594Z,9.43
2018-09-06T10:56:04.297Z,9.37
2018-09-06T10:58:35.198Z,10.20
2018-09-06T11:01:11.252Z,9.13
2018-09-06T11:03:41.858Z,8.27
2018-09-06T11:06:12.574Z,10.00
2018-09-06T11:13:33.856Z,9.50
2018-09-06T11:16:04.272Z,10.70
2018-09-06T11:18:34.429Z,9.83
2018-09-06T11:21:05.873Z,9.40
2018-09-06T11:23:36.327Z,9.30
2018-09-06T11:26:06.713Z,9.23
2018-09-06T11:28:36.931Z,9.20
2018-09-06T11:31:07.785Z,8.80
2018-09-06T11:33:38.301Z,8.30
2018-09-06T11:36:08.901Z,8.30
2018-09-06T11:38:39.525Z,8.70
2018-09-06T11:41:09.716Z,8.63
2018-09-06T11:43:41.951Z,10.10
2018-09-06T11:46:12.392Z,9.70
2018-09-06T11:48:43.591Z,8.20
2018-09-06T11:51:14.041Z,9.50
2018-09-06T11:53:44.324Z,10.53
2018-09-06T11:56:14.419Z,10.13
2018-09-06T11:58:45.144Z,8.40
2018-09-06T12:01:16.220Z,7.83
2018-09-06T12:03:46.889Z,7.93
2018-09-06T12:06:17.079Z,8.97
2018-09-06T12:08:51.419Z,8.20
2018-09-06T12:11:21.584Z,8.23
2018-09-06T12:13:52.123Z,7.63
2018-09-06T12:16:22.456Z,7.67
2018-09-06T12:18:52.965Z,7.80
2018-09-06T12:21:23.718Z,7.87
2018-09-06T12:23:55.002Z,7.73
2018-09-06T12:26:25.578Z,7.30
2018-09-06T12:28:56.107Z,7.90
2018-09-06T12:31:27.258Z,7.60
2018-09-06T12:33:57.858Z,7.40
2018-09-06T12:36:28.439Z,7.93
2018-09-06T12:38:59.378Z,7.87
2018-09-06T12:41:30.671Z,8.10
2018-09-06T12:44:03.920Z,8.70
2018-09-06T12:46:34.433Z,8.57
2018-09-06T12:49:04.750Z,7.50
2018-09-06T12:51:35.253Z,7.80
2018-09-06T12:54:05.680Z,8.00
2018-09-06T12:56:36.531Z,9.03
2018-09-06T12:59:07.635Z,7.40
2018-09-06T13:01:38.001Z,9.47
2018-09-06T13:04:08.744Z,9.00
2018-09-06T13:06:39.174Z,8.20
2018-09-06T13:09:10.723Z,8.67
2018-09-06T13:11:43.046Z,8.53
2018-09-06T13:14:14.977Z,7.57
2018-09-06T13:16:45.482Z,8.83
2018-09-06T13:19:17.427Z,9.20
2018-09-06T13:21:47.904Z,9.90
2018-09-06T13:24:18.310Z,8.60
2018-09-06T13:26:49.243Z,9.07
2018-09-06T13:29:19.531Z,10.10
2018-09-06T13:31:51.341Z,10.03
2018-09-06T13:34:21.517Z,9.53
2018-09-06T13:36:52.206Z,11.20
2018-09-06T13:39:22.766Z,10.00
2018-09-06T13:41:53.251Z,10.03
2018-09-06T13:44:23.736Z,10.87
2018-09-06T13:46:54.221Z,9.73
2018-09-06T13:49:25.489Z,9.53
2018-09-06T13:51:55.912Z,8.73
2018-09-06T13:54:26.295Z,9.80
2018-09-06T13:56:57.499Z,9.00
2018-09-06T13:59:27.981Z,9.00
2018-09-06T14:01:58.249Z,8.70
2018-09-06T14:04:28.787Z,8.83
2018-09-06T14:06:59.140Z,9.80
2018-09-06T14:09:29.686Z,8.97
2018-09-06T14:12:00.280Z,8.63
2018-09-06T14:14:32.641Z,8.80
2018-09-06T14:17:04.064Z,9.00
2018-09-06T14:19:35.640Z,8.43
2018-09-06T14:22:06.062Z,8.87
2018-09-06T14:24:36.562Z,8.63
2018-09-06T14:27:07.184Z,10.07
2018-09-06T14:29:38.187Z,10.03
2018-09-06T14:32:08.715Z,9.50
2018-09-06T14:34:40.008Z,10.17
2018-09-06T14:37:11.657Z,9.13
2018-09-06T14:39:42.776Z,10.77
2018-09-06T14:42:14.007Z,9.03
2018-09-06T14:44:44.959Z,7.93
2018-09-06T14:47:16.643Z,8.63
2018-09-06T14:49:47.473Z,8.17
2018-09-06T14:52:18.573Z,9.43
2018-09-06T14:54:49.664Z,9.07
2018-09-06T14:57:19.975Z,8.87
2018-09-06T14:59:51.901Z,9.43
2018-09-06T15:02:22.428Z,8.67
2018-09-06T15:04:53.384Z,9.50
2018-09-06T15:07:23.552Z,8.67
2018-09-06T15:09:53.999Z,9.60
2018-09-06T15:12:24.456Z,9.57
2018-09-06T15:14:54.906Z,8.80
2018-09-06T15:17:25.301Z,9.50
2018-09-06T15:19:57.678Z,9.03
2018-09-06T15:22:28.745Z,9.17
2018-09-06T15:24:59.886Z,9.33
2018-09-06T15:27:30.936Z,10.20
2018-09-06T15:30:01.503Z,11.23
2018-09-06T15:32:32.232Z,10.90
2018-09-06T15:35:03.439Z,10.77
2018-09-06T15:37:33.910Z,9.70
2018-09-06T15:40:04.721Z,10.53
2018-09-06T15:42:35.205Z,10.90
2018-09-06T15:45:06.352Z,10.60
2018-09-06T15:47:38.596Z,10.70
2018-09-06T15:50:09.726Z,11.10
2018-09-06T15:52:40.020Z,10.70
2018-09-06T15:55:12.285Z,10.60
2018-09-06T15:57:42.605Z,11.33
2018-09-06T16:00:13.288Z,10.40
2018-09-06T16:02:44.507Z,10.63
2018-09-06T16:05:15.785Z,12.40
2018-09-06T16:07:46.453Z,12.23
2018-09-06T16:10:18.613Z,11.07
2018-09-06T16:12:49.543Z,13.43
2018-09-06T16:15:20.106Z,11.00
2018-09-06T16:17:50.449Z,11.73
2018-09-06T16:20:20.881Z,11.67
2018-09-06T16:22:55.477Z,10.93
2018-09-06T16:25:26.680Z,11.80
2018-09-06T16:27:57.096Z,10.77
2018-09-06T16:30:28.115Z,10.40
2018-09-06T16:32:58.412Z,10.20
2018-09-06T16:35:29.409Z,11.57
2018-09-06T16:38:00.071Z,11.10
2018-09-06T16:40:37.731Z,11.50
2018-09-06T16:43:08.321Z,10.10
2018-09-06T16:45:39.625Z,10.40
2018-09-06T16:48:09.966Z,11.83
2018-09-06T16:50:41.236Z,11.17
2018-09-06T16:53:12.396Z,10.57
2018-09-06T16:55:42.825Z,11.07
2018-09-06T16:58:14.066Z,11.23
2018-09-06T17:00:44.733Z,11.07
2018-09-06T17:03:18.571Z,11.50
2018-09-06T17:05:49.070Z,11.70
2018-09-06T17:08:20.169Z,11.47
2018-09-06T17:10:50.390Z,11.90
2018-09-06T17:13:21.398Z,12.30
2018-09-06T17:15:54.043Z,10.83
2018-09-06T17:18:24.255Z,11.80
2018-09-06T17:20:54.746Z,10.87
2018-09-06T17:23:25.306Z,11.27
2018-09-06T17:25:55.625Z,11.03
2018-09-06T17:28:26.929Z,9.73
2018-09-06T17:30:58.488Z,10.33
2018-09-06T17:33:28.460Z,11.83
2018-09-06T17:35:59.498Z,10.53
2018-09-06T17:38:29.592Z,10.10
2018-09-06T17:40:59.929Z,11.17
2018-09-06T17:43:30.372Z,10.80
2018-09-06T17:46:02.325Z,11.40
2018-09-06T17:48:32.761Z,10.87
2018-09-06T17:51:02.951Z,10.70
2018-09-06T17:53:33.368Z,10.60
2018-09-06T17:56:04.348Z,10.40
2018-09-06T17:58:35.411Z,10.30
2018-09-06T18:01:44.491Z,10.70
2018-09-06T18:04:14.628Z,11.13
2018-09-06T18:06:44.954Z,11.40
2018-09-06T18:09:15.364Z,11.07
2018-09-06T18:11:45.619Z,11.13
2018-09-06T18:14:16.057Z,12.40
2018-09-06T18:16:47.026Z,11.63
2018-09-06T18:19:17.296Z,10.57
2018-09-06T18:21:47.437Z,11.40
2018-09-06T18:24:18.127Z,11.40
2018-09-06T18:26:48.450Z,12.30
2018-09-06T18:29:19.044Z,12.30
2018-09-06T18:31:49.683Z,12.77
2018-09-06T18:34:20.201Z,12.50
2018-09-06T18:36:50.392Z,12.03
2018-09-06T18:39:22.490Z,12.23
2018-09-06T18:41:53.686Z,11.90
2018-09-06T18:44:23.833Z,11.10
2018-09-06T18:46:54.068Z,10.43
2018-09-06T18:49:24.358Z,10.93
2018-09-06T18:51:54.931Z,11.30
2018-09-06T18:54:25.995Z,12.97
2018-09-06T18:56:56.245Z,11.87
2018-09-06T18:59:27.683Z,11.43
2018-09-06T19:01:58.126Z,10.47
2018-09-06T19:04:29.327Z,11.63
2018-09-06T19:06:59.455Z,13.20
2018-09-06T19:09:29.503Z,11.50
2018-09-06T19:12:00.600Z,12.10
2018-09-06T19:14:31.378Z,11.23
2018-09-06T19:17:02.948Z,9.83
2018-09-06T19:19:33.252Z,11.17
2018-09-06T19:22:03.572Z,11.03
2018-09-06T19:24:34.148Z,11.60
2018-09-06T19:27:04.320Z,10.50
2018-09-06T19:29:34.332Z,10.47
2018-09-06T19:32:04.756Z,11.37
2018-09-06T19:34:35.878Z,11.27
2018-09-06T19:37:06.208Z,11.50
2018-09-06T19:39:37.482Z,11.13
2018-09-06T19:42:19.338Z,11.70
2018-09-06T19:44:50.096Z,10.90
2018-09-06T19:47:22.252Z,11.07
2018-09-06T19:49:53.823Z,10.70
2018-09-06T19:52:25.014Z,9.93
2018-09-06T19:54:55.665Z,12.17
2018-09-06T19:57:28.158Z,10.07
2018-09-06T20:00:02.778Z,10.50
2018-09-06T20:02:39.390Z,10.50
2018-09-06T20:05:15.630Z,9.67
2018-09-06T20:07:46.802Z,10.57
2018-09-06T20:10:16.966Z,11.17
2018-09-06T20:12:48.538Z,11.87
2018-09-06T20:15:18.888Z,10.13
2018-09-06T20:17:51.228Z,9.70
2018-09-06T20:20:21.605Z,10.77
2018-09-06T20:22:52.156Z,11.50
2018-09-06T20:25:28.919Z,10.63
2018-09-06T20:27:59.413Z,11.23
2018-09-06T20:30:29.601Z,11.03
2018-09-06T20:33:01.920Z,10.90
2018-09-06T20:35:32.990Z,10.17
2018-09-06T20:38:03.265Z,10.47
2018-09-06T20:40:33.409Z,10.83
2018-09-06T20:43:03.813Z,11.67
2018-09-06T20:45:41.880Z,12.30
2018-09-06T20:48:12.420Z,11.70
2018-09-06T20:50:44.012Z,11.57
2018-09-06T20:53:30.920Z,12.07
2018-09-06T20:56:01.150Z,11.77
2018-09-06T20:58:31.549Z,11.00
2018-09-06T21:03:38.912Z,11.73
2018-09-06T21:06:14.313Z,11.60
2018-09-06T21:08:44.627Z,11.80
2018-09-06T21:11:17.089Z,11.63
2018-09-06T21:13:47.152Z,11.03
2018-09-06T21:16:17.423Z,11.47
2018-09-06T21:18:47.382Z,10.13
2018-09-06T21:21:17.600Z,11.27
2018-09-06T21:23:48.104Z,10.13
2018-09-06T21:26:18.476Z,10.30
2018-09-06T21:28:49.063Z,10.63
2018-09-06T21:31:19.043Z,10.50
2018-09-06T21:33:49.332Z,10.83
2018-09-06T21:36:20.462Z,12.43
2018-09-06T21:38:50.590Z,12.30
2018-09-06T21:41:20.689Z,11.83
2018-09-06T21:43:50.577Z,11.40
2018-09-06T21:46:21.126Z,11.40
2018-09-06T21:48:51.419Z,10.97
2018-09-06T21:51:21.667Z,12.27
2018-09-06T21:53:51.829Z,11.97
2018-09-06T21:56:22.201Z,11.90
2018-09-06T21:58:53.527Z,12.90
2018-09-06T22:01:26.152Z,11.83
2018-09-06T22:04:05.825Z,12.20
2018-09-06T22:06:37.737Z,12.37
2018-09-06T22:09:12.996Z,12.50
2018-09-06T22:11:43.799Z,12.83
2018-09-06T22:14:13.895Z,12.70
2018-09-06T22:16:45.353Z,12.77
2018-09-06T22:19:17.724Z,13.40
2018-09-06T22:21:48.275Z,12.43
2018-09-06T22:24:18.804Z,13.80
2018-09-06T22:26:49.717Z,13.13
2018-09-06T22:29:21.240Z,13.27
2018-09-06T22:38:41.727Z,14.07
2018-09-06T22:41:12.141Z,14.10
2018-09-06T22:43:43.123Z,13.60
2018-09-06T22:46:13.504Z,13.60
2018-09-06T22:48:45.298Z,13.47
2018-09-06T22:51:16.730Z,13.00
2018-09-06T22:53:47.406Z,13.33
2018-09-06T22:56:18.275Z,12.73
2018-09-06T22:58:49.602Z,13.10
2018-09-06T23:01:20.084Z,12.80
2018-09-06T23:03:54.297Z,13.33
2018-09-06T23:06:25.464Z,13.80
2018-09-06T23:08:56.529Z,12.87
2018-09-06T23:11:28.564Z,12.17
2018-09-06T23:13:59.827Z,13.47
2018-09-06T23:16:30.734Z,12.43
2018-09-06T23:19:03.337Z,12.43
2018-09-06T23:21:34.027Z,14.47
2018-09-06T23:24:04.696Z,12.90
2018-09-06T23:26:35.079Z,14.17
2018-09-06T23:29:07.788Z,13.20
2018-09-06T23:31:37.838Z,14.13
2018-09-06T23:34:07.846Z,14.03
2018-09-06T23:36:38.944Z,12.90
2018-09-06T23:39:10.428Z,13.97
2018-09-06T23:41:40.705Z,12.90
2018-09-06T23:44:10.786Z,14.07
2018-09-06T23:46:41.019Z,14.83
2018-09-06T23:49:11.416Z,14.37
2018-09-06T23:51:41.314Z,13.20
2018-09-06T23:54:12.255Z,14.40
2018-09-06T23:56:43.265Z,14.37
2018-09-06T23:59:16.494Z,13.63
